createdAt,value
2022-10-26T00:00:19.424Z,4.57
2022-10-26T00:02:22.067Z,5.25
2022-10-26T00:04:24.780Z,4.63
2022-10-26T00:06:29.131Z,5.20
2022-10-26T00:08:33.338Z,5.03
2022-10-26T00:10:36.778Z,4.25
2022-10-26T00:12:39.362Z,4.32
2022-10-26T00:14:42.156Z,4.50
2022-10-26T00:16:44.804Z,4.43
2022-10-26T00:18:47.825Z,4.63
2022-10-26T00:20:50.745Z,5.18
2022-10-26T00:22:53.371Z,4.72
2022-10-26T00:24:57.373Z,4.28
2022-10-26T00:26:59.925Z,3.78
2022-10-26T00:29:02.543Z,3.90
2022-10-26T00:31:07.260Z,4.72
2022-10-26T00:33:14.233Z,4.20
2022-10-26T00:35:23.262Z,3.97
2022-10-26T00:37:37.322Z,4.15
2022-10-26T00:39:39.933Z,4.03
2022-10-26T00:41:43.882Z,4.05
2022-10-26T00:43:46.713Z,3.80
2022-10-26T00:45:52.024Z,3.17
2022-10-26T00:47:59.480Z,4.45
2022-10-26T00:50:07.436Z,3.72
2022-10-26T00:52:10.532Z,3.70
2022-10-26T00:54:18.305Z,4.03
2022-10-26T00:56:21.337Z,3.67
2022-10-26T00:58:27.007Z,3.78
2022-10-26T01:00:29.699Z,3.17
2022-10-26T01:02:32.298Z,3.88
2022-10-26T01:04:37.964Z,3.25
2022-10-26T01:06:42.624Z,2.72
2022-10-26T01:08:45.482Z,3.35
2022-10-26T01:10:48.312Z,3.45
2022-10-26T01:12:51.395Z,3.38
2022-10-26T01:14:55.694Z,3.65
2022-10-26T01:17:05.575Z,2.97
2022-10-26T01:19:28.468Z,3.10
2022-10-26T01:21:55.134Z,3.10
2022-10-26T01:24:20.534Z,3.40
2022-10-26T01:26:55.125Z,3.38
2022-10-26T01:29:45.710Z,3.40
2022-10-26T01:31:58.161Z,2.60
2022-10-26T01:34:05.410Z,3.30
2022-10-26T01:36:13.816Z,3.22
2022-10-26T01:38:23.586Z,3.17
2022-10-26T01:40:31.769Z,2.92
2022-10-26T01:42:35.801Z,3.50
2022-10-26T01:44:42.750Z,3.30
2022-10-26T01:46:47.702Z,3.22
2022-10-26T01:48:56.465Z,3.35
2022-10-26T01:50:59.567Z,3.30
2022-10-26T01:53:02.179Z,3.17
2022-10-26T01:55:08.725Z,3.88
2022-10-26T01:57:14.340Z,3.13
2022-10-26T01:59:34.396Z,2.95
2022-10-26T02:01:54.531Z,2.97
2022-10-26T02:04:07.589Z,2.70
2022-10-26T02:06:20.273Z,3.55
2022-10-26T02:08:34.333Z,3.03
2022-10-26T02:10:49.422Z,3.63
2022-10-26T02:12:58.800Z,3.80
2022-10-26T02:15:08.109Z,3.58
2022-10-26T02:17:19.638Z,3.05
2022-10-26T02:19:32.960Z,2.95
2022-10-26T02:21:38.969Z,3.17
2022-10-26T02:23:46.244Z,3.25
2022-10-26T02:25:52.739Z,2.95
2022-10-26T02:27:58.728Z,3.22
2022-10-26T02:30:03.719Z,3.30
2022-10-26T02:32:09.739Z,3.13
2022-10-26T02:34:17.244Z,3.40
2022-10-26T02:36:26.534Z,3.35
2022-10-26T02:38:31.601Z,3.47
2022-10-26T02:40:35.718Z,3.00
2022-10-26T02:42:40.733Z,2.90
2022-10-26T02:44:47.606Z,3.00
2022-10-26T02:46:50.967Z,3.50
2022-10-26T02:48:53.910Z,3.42
2022-10-26T02:51:03.644Z,3.97
2022-10-26T02:53:17.153Z,3.03
2022-10-26T02:57:30.629Z,2.83
2022-10-26T02:59:38.066Z,2.83
2022-10-26T03:01:41.798Z,2.97
2022-10-26T03:03:44.728Z,2.60
2022-10-26T03:05:47.461Z,3.00
2022-10-26T03:07:50.113Z,3.42
2022-10-26T03:09:54.115Z,3.08
2022-10-26T03:11:56.781Z,2.65
2022-10-26T03:13:59.434Z,2.60
2022-10-26T03:16:02.089Z,2.85
2022-10-26T03:18:05.642Z,3.00
2022-10-26T03:20:09.682Z,3.30
2022-10-26T03:22:12.437Z,2.50
2022-10-26T03:24:15.093Z,3.10
2022-10-26T03:26:19.145Z,2.88
2022-10-26T03:28:21.863Z,2.75
2022-10-26T03:30:24.521Z,2.70
2022-10-26T03:32:27.165Z,2.95
2022-10-26T03:34:29.757Z,3.10
2022-10-26T03:36:32.921Z,2.28
2022-10-26T03:38:35.528Z,3.15
2022-10-26T03:40:38.203Z,3.25
2022-10-26T03:42:42.465Z,2.88
2022-10-26T03:44:47.046Z,2.80
2022-10-26T03:46:49.692Z,3.13
2022-10-26T03:48:52.342Z,3.05
2022-10-26T03:50:58.900Z,3.40
2022-10-26T03:53:01.518Z,3.30
2022-10-26T03:55:04.437Z,3.50
2022-10-26T03:57:07.072Z,4.50
2022-10-26T03:59:11.034Z,3.78
2022-10-26T04:01:13.722Z,4.10
2022-10-26T04:03:16.378Z,3.80
2022-10-26T04:05:19.040Z,4.20
2022-10-26T04:07:21.706Z,4.00
2022-10-26T04:09:24.433Z,4.88
2022-10-26T04:11:27.081Z,4.65
2022-10-26T04:13:29.773Z,5.55
2022-10-26T04:15:33.811Z,4.70
2022-10-26T04:17:36.604Z,4.90
2022-10-26T04:19:39.213Z,4.78
2022-10-26T04:21:41.860Z,5.20
2022-10-26T04:23:44.490Z,6.65
2022-10-26T04:25:47.486Z,5.40
2022-10-26T04:27:50.439Z,5.22
2022-10-26T04:29:53.294Z,3.83
2022-10-26T04:31:57.310Z,4.30
2022-10-26T04:34:00.073Z,3.30
2022-10-26T04:36:03.072Z,3.05
2022-10-26T04:38:07.811Z,2.58
2022-10-26T04:40:11.230Z,2.15
2022-10-26T04:42:13.874Z,2.60
2022-10-26T04:44:16.785Z,2.30
2022-10-26T04:46:19.458Z,2.50
2022-10-26T04:48:26.433Z,2.95
2022-10-26T04:50:29.070Z,2.58
2022-10-26T04:52:31.696Z,2.17
2022-10-26T04:54:34.364Z,2.55
2022-10-26T04:56:37.053Z,1.73
2022-10-26T04:58:39.698Z,1.98
2022-10-26T05:00:42.380Z,2.08
2022-10-26T05:02:45.053Z,1.55
2022-10-26T05:04:49.461Z,2.33
2022-10-26T05:06:53.392Z,2.20
2022-10-26T05:08:56.030Z,1.55
2022-10-26T05:10:58.676Z,1.95
2022-10-26T05:13:02.100Z,2.47
2022-10-26T05:15:07.820Z,3.00
2022-10-26T05:17:11.382Z,2.50
2022-10-26T05:19:14.091Z,3.13
2022-10-26T05:21:19.611Z,2.45
2022-10-26T05:23:23.078Z,2.10
2022-10-26T05:25:25.888Z,2.00
2022-10-26T05:27:28.533Z,2.00
2022-10-26T05:29:31.249Z,2.33
2022-10-26T05:31:33.862Z,1.75
2022-10-26T05:33:36.477Z,2.00
2022-10-26T05:35:39.859Z,2.00
2022-10-26T05:37:44.035Z,2.10
2022-10-26T05:39:46.765Z,2.08
2022-10-26T05:41:49.414Z,2.10
2022-10-26T05:43:52.935Z,1.92
2022-10-26T05:45:56.197Z,1.92
2022-10-26T05:48:02.519Z,2.13
2022-10-26T05:52:08.853Z,1.52
2022-10-26T05:54:13.984Z,2.25
2022-10-26T05:56:21.530Z,1.50
2022-10-26T05:58:24.879Z,2.03
2022-10-26T06:00:29.462Z,2.30
2022-10-26T06:02:38.617Z,1.88
2022-10-26T06:04:47.856Z,1.98
2022-10-26T06:06:55.062Z,1.60
2022-10-26T06:08:58.124Z,2.67
2022-10-26T06:11:03.041Z,2.58
2022-10-26T06:13:06.136Z,2.85
2022-10-26T06:15:14.122Z,3.10
2022-10-26T06:17:31.046Z,2.55
2022-10-26T06:19:48.154Z,2.60
2022-10-26T06:22:05.506Z,2.15
2022-10-26T06:24:13.440Z,1.85
2022-10-26T06:26:26.625Z,2.08
2022-10-26T06:28:41.411Z,1.40
2022-10-26T06:30:44.049Z,1.95
2022-10-26T06:32:48.176Z,1.63
2022-10-26T06:34:53.645Z,1.58
2022-10-26T06:36:59.174Z,2.08
2022-10-26T06:39:05.413Z,2.10
2022-10-26T06:41:08.368Z,2.03
2022-10-26T06:43:17.893Z,2.28
2022-10-26T06:45:21.510Z,1.83
2022-10-26T06:47:31.253Z,2.53
2022-10-26T06:49:38.236Z,2.03
2022-10-26T06:51:46.992Z,2.25
2022-10-26T06:53:58.449Z,3.00
2022-10-26T06:56:01.788Z,2.25
2022-10-26T06:58:05.419Z,2.72
2022-10-26T07:00:19.793Z,3.03
2022-10-26T07:02:22.673Z,2.17
2022-10-26T07:04:25.336Z,2.13
2022-10-26T07:06:27.958Z,2.10
2022-10-26T07:08:32.936Z,2.30
2022-10-26T07:10:39.097Z,2.53
2022-10-26T07:12:41.866Z,2.90
2022-10-26T07:14:44.521Z,2.20
2022-10-26T07:16:48.504Z,2.25
2022-10-26T07:18:51.142Z,2.05
2022-10-26T07:20:53.750Z,2.55
2022-10-26T07:22:57.539Z,2.75
2022-10-26T07:25:02.875Z,1.65
2022-10-26T07:27:06.185Z,2.47
2022-10-26T07:29:08.811Z,2.28
2022-10-26T07:31:11.424Z,2.00
2022-10-26T07:33:15.660Z,1.67
2022-10-26T07:35:18.252Z,1.33
2022-10-26T07:37:20.884Z,1.80
2022-10-26T07:39:23.501Z,1.80
2022-10-26T07:41:26.125Z,1.60
2022-10-26T07:43:28.759Z,2.10
2022-10-26T07:45:31.794Z,1.60
2022-10-26T07:47:34.505Z,1.60
2022-10-26T07:49:38.480Z,1.65
2022-10-26T07:51:41.104Z,2.60
2022-10-26T07:53:43.713Z,3.22
2022-10-26T07:55:54.098Z,2.38
2022-10-26T07:57:57.339Z,1.77
2022-10-26T08:00:00.167Z,2.25
2022-10-26T08:02:02.941Z,1.92
2022-10-26T08:04:05.613Z,1.55
2022-10-26T08:06:10.472Z,1.55
2022-10-26T08:08:13.166Z,2.00
2022-10-26T08:10:16.435Z,1.90
2022-10-26T08:12:19.157Z,1.70
2022-10-26T08:14:21.777Z,2.08
2022-10-26T08:16:24.754Z,1.85
2022-10-26T08:18:27.953Z,2.15
2022-10-26T08:20:30.563Z,1.75
2022-10-26T08:22:34.603Z,1.58
2022-10-26T08:24:37.185Z,2.38
2022-10-26T08:26:39.770Z,1.95
2022-10-26T08:28:42.592Z,2.28
2022-10-26T08:30:45.315Z,2.25
2022-10-26T08:32:48.184Z,2.00
2022-10-26T08:34:51.026Z,2.00
2022-10-26T08:36:53.621Z,1.67
2022-10-26T08:38:57.585Z,1.20
2022-10-26T08:41:00.682Z,1.20
2022-10-26T08:43:09.129Z,1.58
2022-10-26T08:45:27.549Z,1.50
2022-10-26T08:47:37.241Z,2.00
2022-10-26T08:49:45.206Z,1.33
2022-10-26T08:51:51.243Z,1.60
2022-10-26T08:54:00.756Z,1.35
2022-10-26T08:56:10.677Z,1.70
2022-10-26T08:58:17.167Z,1.42
2022-10-26T09:00:22.424Z,1.50
2022-10-26T09:02:25.720Z,1.30
2022-10-26T09:04:30.185Z,1.10
2022-10-26T09:06:43.256Z,1.52
2022-10-26T09:08:57.713Z,1.30
2022-10-26T09:11:13.936Z,1.38
2022-10-26T09:13:27.252Z,1.40
2022-10-26T09:17:45.932Z,1.25
2022-10-26T09:20:11.477Z,1.50
2022-10-26T09:22:22.837Z,1.60
2022-10-26T09:24:32.465Z,1.38
2022-10-26T09:26:40.180Z,1.95
2022-10-26T09:28:46.624Z,1.38
2022-10-26T09:30:49.664Z,1.45
2022-10-26T09:32:57.121Z,1.73
2022-10-26T09:35:06.285Z,1.67
2022-10-26T09:37:16.941Z,1.50
2022-10-26T09:39:25.802Z,1.80
2022-10-26T09:41:34.309Z,1.92
2022-10-26T09:43:44.470Z,1.52
2022-10-26T09:45:51.964Z,1.55
2022-10-26T09:47:57.577Z,1.52
2022-10-26T09:50:06.812Z,1.23
2022-10-26T09:54:17.061Z,1.90
2022-10-26T09:56:20.573Z,1.73
2022-10-26T09:58:28.813Z,1.58
2022-10-26T10:02:44.965Z,1.95
2022-10-26T10:04:48.772Z,1.63
2022-10-26T10:06:52.994Z,1.73
2022-10-26T10:09:10.781Z,1.02
2022-10-26T10:11:14.714Z,1.52
2022-10-26T10:13:18.428Z,2.33
2022-10-26T10:15:23.600Z,1.23
2022-10-26T10:17:28.027Z,1.85
2022-10-26T10:19:32.582Z,1.70
2022-10-26T10:21:37.957Z,1.58
2022-10-26T10:23:51.853Z,1.85
2022-10-26T10:26:04.243Z,2.10
2022-10-26T10:28:22.206Z,1.77
2022-10-26T10:30:30.428Z,1.50
2022-10-26T10:32:37.399Z,1.75
2022-10-26T10:34:41.900Z,1.83
2022-10-26T10:36:44.602Z,1.98
2022-10-26T10:38:49.514Z,2.05
2022-10-26T10:40:54.669Z,2.05
2022-10-26T10:43:06.154Z,1.83
2022-10-26T10:45:21.003Z,2.25
2022-10-26T10:47:25.537Z,1.73
2022-10-26T10:49:31.228Z,2.00
2022-10-26T10:51:39.486Z,2.00
2022-10-26T10:53:48.355Z,2.17
2022-10-26T10:56:10.773Z,2.00
2022-10-26T10:58:25.086Z,2.17
2022-10-26T11:00:28.703Z,2.13
2022-10-26T11:02:58.329Z,2.17
2022-10-26T11:05:23.471Z,2.55
2022-10-26T11:07:32.920Z,2.50
2022-10-26T11:09:38.796Z,1.73
2022-10-26T11:11:46.019Z,2.05
2022-10-26T11:13:54.512Z,2.00
2022-10-26T11:16:02.727Z,2.33
2022-10-26T11:18:12.088Z,1.90
2022-10-26T11:20:20.254Z,2.20
2022-10-26T11:22:27.341Z,2.20
2022-10-26T11:24:33.057Z,2.20
2022-10-26T11:26:45.122Z,2.40
2022-10-26T11:31:00.626Z,1.67
2022-10-26T11:33:10.404Z,1.65
2022-10-26T11:35:20.320Z,2.60
2022-10-26T11:37:29.647Z,2.10
2022-10-26T11:39:44.180Z,2.42
2022-10-26T11:41:51.049Z,2.35
2022-10-26T11:46:06.124Z,1.95
2022-10-26T11:48:17.789Z,2.17
2022-10-26T11:50:26.711Z,2.25
2022-10-26T11:52:35.134Z,2.47
2022-10-26T11:54:42.478Z,2.42
2022-10-26T11:56:49.222Z,2.72
2022-10-26T11:58:52.658Z,1.73
2022-10-26T12:00:59.340Z,2.42
2022-10-26T12:03:08.436Z,2.20
2022-10-26T12:05:20.821Z,2.30
2022-10-26T12:07:30.118Z,1.98
2022-10-26T12:09:35.902Z,2.10
2022-10-26T12:11:45.198Z,2.20
2022-10-26T12:13:51.885Z,2.00
2022-10-26T12:16:03.982Z,2.03
2022-10-26T12:18:16.126Z,1.92
2022-10-26T12:20:49.849Z,2.22
2022-10-26T12:22:54.096Z,2.17
2022-10-26T12:25:12.479Z,2.05
2022-10-26T12:27:50.771Z,1.90
2022-10-26T12:30:24.538Z,1.50
2022-10-26T12:32:52.479Z,1.73
2022-10-26T12:35:01.507Z,1.88
2022-10-26T12:37:25.437Z,2.05
2022-10-26T12:39:31.354Z,1.10
2022-10-26T12:41:38.887Z,1.88
2022-10-26T12:43:42.462Z,1.23
2022-10-26T12:45:46.472Z,1.67
2022-10-26T12:48:10.695Z,1.85
2022-10-26T12:50:24.860Z,1.75
2022-10-26T12:52:43.684Z,2.00
2022-10-26T12:55:08.545Z,1.77
2022-10-26T12:57:22.026Z,1.88
2022-10-26T12:59:33.024Z,2.08
2022-10-26T13:02:08.967Z,2.05
2022-10-26T13:04:36.474Z,1.98
2022-10-26T13:06:56.841Z,1.80
2022-10-26T13:09:01.925Z,1.88
2022-10-26T13:11:17.222Z,1.95
2022-10-26T13:13:24.745Z,1.95
2022-10-26T13:15:29.261Z,1.67
2022-10-26T13:19:42.901Z,1.65
2022-10-26T13:21:48.234Z,1.45
2022-10-26T13:24:01.449Z,1.52
2022-10-26T13:26:11.997Z,2.35
2022-10-26T13:28:34.375Z,1.60
2022-10-26T13:30:44.725Z,1.73
2022-10-26T13:32:53.082Z,2.10
2022-10-26T13:34:58.434Z,1.80
2022-10-26T13:37:08.006Z,2.47
2022-10-26T13:39:15.170Z,1.77
2022-10-26T13:41:31.762Z,1.48
2022-10-26T13:43:37.424Z,2.63
2022-10-26T13:45:54.612Z,1.45
2022-10-26T13:48:02.436Z,1.60
2022-10-26T13:50:08.690Z,1.88
2022-10-26T13:52:17.424Z,1.80
2022-10-26T13:54:26.557Z,2.00
2022-10-26T13:56:34.628Z,1.70
2022-10-26T13:58:43.333Z,1.77
2022-10-26T14:01:01.635Z,1.63
2022-10-26T14:03:13.886Z,1.60
2022-10-26T14:05:19.641Z,2.38
2022-10-26T14:07:25.081Z,1.88
2022-10-26T14:09:30.946Z,1.50
2022-10-26T14:11:38.512Z,1.40
2022-10-26T14:13:42.806Z,1.67
2022-10-26T14:15:47.100Z,1.20
2022-10-26T14:17:52.366Z,1.67
2022-10-26T14:19:55.667Z,1.70
2022-10-26T14:21:59.491Z,1.65
2022-10-26T14:24:07.572Z,1.80
2022-10-26T14:26:20.461Z,1.58
2022-10-26T14:28:26.702Z,1.60
2022-10-26T14:30:31.726Z,0.80
2022-10-26T14:32:35.623Z,1.20
2022-10-26T14:34:38.258Z,1.00
2022-10-26T14:36:44.759Z,1.83
2022-10-26T14:38:50.401Z,1.20
2022-10-26T14:40:54.574Z,1.50
2022-10-26T14:43:00.025Z,1.50
2022-10-26T14:45:04.256Z,1.40
2022-10-26T14:47:14.600Z,1.27
2022-10-26T14:49:20.838Z,1.58
2022-10-26T14:51:28.072Z,1.55
2022-10-26T14:53:37.727Z,1.33
2022-10-26T14:55:50.707Z,1.20
2022-10-26T14:58:06.830Z,1.38
2022-10-26T15:00:16.849Z,1.00
2022-10-26T15:02:22.433Z,1.20
2022-10-26T15:04:32.112Z,1.42
2022-10-26T15:06:40.297Z,1.48
2022-10-26T15:08:55.828Z,1.65
2022-10-26T15:11:07.716Z,1.50
2022-10-26T15:13:10.680Z,1.55
2022-10-26T15:17:37.696Z,1.30
2022-10-26T15:19:40.491Z,1.55
2022-10-26T15:21:48.455Z,1.70
2022-10-26T16:00:52.835Z,1.33
2022-10-26T16:02:55.462Z,1.52
2022-10-26T16:04:58.105Z,1.40
2022-10-26T16:07:05.337Z,1.30
2022-10-26T16:09:11.354Z,1.20
2022-10-26T16:11:13.939Z,1.60
2022-10-26T16:13:16.943Z,1.08
2022-10-26T16:15:22.346Z,1.20
2022-10-26T16:17:26.330Z,1.23
2022-10-26T16:19:31.474Z,1.23
2022-10-26T16:21:34.683Z,1.88
2022-10-26T16:23:37.286Z,1.63
2022-10-26T16:25:43.373Z,1.35
2022-10-26T16:27:46.548Z,1.02
2022-10-26T16:29:49.156Z,1.55
2022-10-26T16:31:51.797Z,1.25
2022-10-26T16:33:58.977Z,1.30
2022-10-26T16:36:05.441Z,1.50
2022-10-26T16:38:08.113Z,1.45
2022-10-26T16:40:11.546Z,1.20
2022-10-26T16:42:14.525Z,1.42
2022-10-26T16:44:17.181Z,1.50
2022-10-26T16:46:22.265Z,1.38
2022-10-26T16:48:24.870Z,1.30
2022-10-26T16:50:30.037Z,1.27
2022-10-26T16:52:37.335Z,1.58
2022-10-26T16:54:40.101Z,1.33
2022-10-26T16:56:43.168Z,1.92
2022-10-26T16:58:46.049Z,1.73
2022-10-26T17:00:55.246Z,1.55
2022-10-26T17:02:57.874Z,1.55
2022-10-26T17:05:04.169Z,1.25
2022-10-26T17:07:11.732Z,1.42
2022-10-26T17:09:14.359Z,1.73
2022-10-26T17:11:19.507Z,1.67
2022-10-26T17:13:22.660Z,2.90
2022-10-26T17:15:28.913Z,2.65
2022-10-26T17:17:31.828Z,1.55
2022-10-26T17:19:34.544Z,1.63
2022-10-26T17:21:37.224Z,1.40
2022-10-26T17:23:41.265Z,1.67
2022-10-26T17:25:44.185Z,1.80
2022-10-26T17:27:47.608Z,1.60
2022-10-26T17:29:50.444Z,2.13
2022-10-26T17:31:53.036Z,1.77
2022-10-26T17:33:57.632Z,1.70
2022-10-26T17:36:00.290Z,1.80
2022-10-26T17:38:03.034Z,1.65
2022-10-26T17:40:08.268Z,1.70
2022-10-26T17:42:10.857Z,1.67
2022-10-26T17:44:13.463Z,1.80
2022-10-26T17:46:18.089Z,2.22
2022-10-26T17:48:20.696Z,1.80
2022-10-26T17:50:23.289Z,1.48
2022-10-26T17:52:25.913Z,1.85
2022-10-26T17:54:28.522Z,2.10
2022-10-26T17:56:34.873Z,2.28
2022-10-26T17:58:42.538Z,2.03
2022-10-26T18:00:47.966Z,1.60
2022-10-26T18:02:52.775Z,1.70
2022-10-26T18:04:55.494Z,1.90
2022-10-26T18:06:58.120Z,1.50
2022-10-26T18:09:00.808Z,1.88
2022-10-26T18:11:03.843Z,1.33
2022-10-26T18:13:07.813Z,1.42
2022-10-26T18:15:11.206Z,1.65
2022-10-26T18:17:13.834Z,1.30
2022-10-26T18:19:16.553Z,1.80
2022-10-26T18:21:21.050Z,1.38
2022-10-26T18:23:23.674Z,1.50
2022-10-26T18:25:26.462Z,1.70
2022-10-26T18:27:29.041Z,1.80
2022-10-26T18:29:36.163Z,1.33
2022-10-26T18:31:41.552Z,1.60
2022-10-26T18:33:44.751Z,1.58
2022-10-26T18:35:47.380Z,1.75
2022-10-26T18:37:50.385Z,2.03
2022-10-26T18:39:53.384Z,2.55
2022-10-26T18:41:55.996Z,3.30
2022-10-26T18:43:59.827Z,2.58
2022-10-26T18:46:08.900Z,3.05
2022-10-26T18:48:11.547Z,2.92
2022-10-26T18:50:14.258Z,2.92
2022-10-26T18:52:16.869Z,2.58
2022-10-26T18:54:19.467Z,2.67
2022-10-26T18:56:23.846Z,2.28
2022-10-26T18:58:30.654Z,2.38
2022-10-26T19:00:33.311Z,2.13
2022-10-26T19:02:37.376Z,1.98
2022-10-26T19:04:40.008Z,1.90
2022-10-26T19:06:47.210Z,1.92
2022-10-26T19:08:49.868Z,1.88
2022-10-26T19:10:52.475Z,1.90
2022-10-26T19:12:55.106Z,1.70
2022-10-26T19:14:57.727Z,1.60
2022-10-26T19:17:00.341Z,1.73
2022-10-26T19:19:05.854Z,1.50
2022-10-26T19:21:10.366Z,1.85
2022-10-26T19:23:12.961Z,2.17
2022-10-26T19:25:15.756Z,2.58
2022-10-26T19:27:18.819Z,2.00
2022-10-26T19:29:21.957Z,1.60
2022-10-26T19:31:27.298Z,1.90
2022-10-26T19:33:30.085Z,1.80
2022-10-26T19:37:41.568Z,1.50
2022-10-26T19:39:44.171Z,2.00
2022-10-26T19:41:47.389Z,1.60
2022-10-26T19:43:50.926Z,1.80
2022-10-26T19:45:53.651Z,1.70
2022-10-26T19:47:56.820Z,2.00
2022-10-26T19:49:59.758Z,1.60
2022-10-26T19:52:03.741Z,1.67
2022-10-26T19:54:07.377Z,2.20
2022-10-26T19:56:13.344Z,2.03
2022-10-26T19:58:16.012Z,2.00
2022-10-26T20:00:19.104Z,2.50
2022-10-26T20:02:21.733Z,2.10
2022-10-26T20:04:24.510Z,2.50
2022-10-26T20:06:27.180Z,2.15
2022-10-26T20:08:31.218Z,2.30
2022-10-26T20:10:33.915Z,2.83
2022-10-26T20:12:36.567Z,2.60
2022-10-26T20:14:39.310Z,2.53
2022-10-26T20:16:42.256Z,2.80
2022-10-26T20:18:48.770Z,2.60
2022-10-26T20:20:52.026Z,2.70
2022-10-26T20:22:54.674Z,3.53
2022-10-26T20:24:58.742Z,2.60
2022-10-26T20:27:01.384Z,2.60
2022-10-26T20:29:04.038Z,2.53
2022-10-26T20:31:09.885Z,2.97
2022-10-26T20:33:13.240Z,2.28
2022-10-26T20:35:15.976Z,2.42
2022-10-26T20:37:19.305Z,2.35
2022-10-26T20:39:22.425Z,2.72
2022-10-26T20:41:27.058Z,2.28
2022-10-26T20:43:30.229Z,2.70
2022-10-26T20:45:34.199Z,2.20
2022-10-26T20:47:37.840Z,2.60
2022-10-26T20:49:40.924Z,2.50
2022-10-26T20:52:08.626Z,2.40
2022-10-26T20:54:21.207Z,2.42
2022-10-26T20:56:27.252Z,2.50
2022-10-26T20:58:39.645Z,3.00
2022-10-26T21:00:49.443Z,2.53
2022-10-26T21:02:52.425Z,2.47
2022-10-26T21:04:55.230Z,2.75
2022-10-26T21:06:57.860Z,2.35
2022-10-26T21:09:00.449Z,2.20
2022-10-26T21:11:03.044Z,2.88
2022-10-26T21:13:07.046Z,2.63
2022-10-26T21:15:10.568Z,2.60
2022-10-26T21:17:13.254Z,2.30
2022-10-26T21:19:16.044Z,2.45
2022-10-26T21:21:18.658Z,2.05
2022-10-26T21:23:21.265Z,2.53
2022-10-26T21:25:23.935Z,2.63
2022-10-26T21:27:26.546Z,2.30
2022-10-26T21:29:30.480Z,2.55
2022-10-26T21:31:34.497Z,2.50
2022-10-26T21:33:37.318Z,2.30
2022-10-26T21:35:39.961Z,2.42
2022-10-26T21:37:42.576Z,2.45
2022-10-26T21:39:45.257Z,2.83
2022-10-26T21:41:47.879Z,2.40
2022-10-26T21:44:03.183Z,2.40
2022-10-26T21:46:14.558Z,3.13
2022-10-26T21:48:17.178Z,2.33
2022-10-26T21:50:20.597Z,2.67
2022-10-26T21:52:23.331Z,2.72
2022-10-26T21:54:25.960Z,2.50
2022-10-26T21:56:28.576Z,2.45
2022-10-26T21:58:31.460Z,2.60
2022-10-26T22:00:34.109Z,2.63
2022-10-26T22:02:38.093Z,2.72
2022-10-26T22:04:40.667Z,2.47
2022-10-26T22:06:43.402Z,2.75
2022-10-26T22:08:46.827Z,3.25
2022-10-26T22:10:49.484Z,3.10
2022-10-26T22:12:52.149Z,2.33
2022-10-26T22:14:54.788Z,2.50
2022-10-26T22:16:57.410Z,2.80
2022-10-26T22:19:05.533Z,2.45
2022-10-26T22:21:09.266Z,2.47
2022-10-26T22:23:11.866Z,2.30
2022-10-26T22:25:14.599Z,2.08
2022-10-26T22:27:17.351Z,2.30
2022-10-26T22:29:20.041Z,2.30
2022-10-26T22:31:24.229Z,2.33
2022-10-26T22:33:26.879Z,2.28
2022-10-26T22:35:30.929Z,2.17
2022-10-26T22:37:33.555Z,2.10
2022-10-26T22:39:36.167Z,2.13
2022-10-26T22:41:38.801Z,2.53
2022-10-26T22:43:41.411Z,2.42
2022-10-26T22:45:43.989Z,2.40
2022-10-26T22:47:46.562Z,2.30
2022-10-26T22:49:49.168Z,2.17
2022-10-26T22:51:53.128Z,2.00
2022-10-26T22:53:57.280Z,1.95
2022-10-26T22:55:59.969Z,2.00
2022-10-26T23:00:29.165Z,2.20
2022-10-26T23:02:31.761Z,1.90
2022-10-26T23:04:34.485Z,2.08
2022-10-26T23:06:37.207Z,2.25
2022-10-26T23:08:41.229Z,2.03
2022-10-26T23:10:43.845Z,2.08
2022-10-26T23:12:46.459Z,2.22
2022-10-26T23:14:49.069Z,1.88
2022-10-26T23:16:52.052Z,2.30
2022-10-26T23:18:55.152Z,2.20
2022-10-26T23:20:57.756Z,1.98
2022-10-26T23:23:00.369Z,2.33
2022-10-26T23:25:05.728Z,1.85
2022-10-26T23:27:08.325Z,2.33
2022-10-26T23:29:10.926Z,2.00
2022-10-26T23:31:17.572Z,2.00
2022-10-26T23:33:20.205Z,2.33
2022-10-26T23:35:22.973Z,2.20
2022-10-26T23:37:25.578Z,2.10
2022-10-26T23:39:28.174Z,2.17
2022-10-26T23:41:32.160Z,2.10
2022-10-26T23:43:34.942Z,2.08
2022-10-26T23:45:37.539Z,2.17
2022-10-26T23:47:41.003Z,2.22
2022-10-26T23:49:43.668Z,2.40
2022-10-26T23:51:46.311Z,1.92
2022-10-26T23:53:48.953Z,2.28
2022-10-26T23:55:52.071Z,2.05
2022-10-26T23:57:56.045Z,2.15
2022-10-26T23:59:58.677Z,2.25
